createdAt,value
2018-04-18T00:00:42.201Z,100057.19
2018-04-18T00:03:10.090Z,100052.48
2018-04-18T00:05:37.638Z,100062.23
2018-04-18T00:08:06.004Z,100059.14
2018-04-18T00:10:33.672Z,100059.26
2018-04-18T00:13:01.222Z,100053.20
2018-04-18T00:15:28.814Z,100052.88
2018-04-18T00:17:56.358Z,100057.09
2018-04-18T00:20:24.175Z,100057.17
2018-04-18T00:22:51.897Z,100053.37
2018-04-18T00:25:19.441Z,100059.64
2018-04-18T00:27:46.989Z,100062.01
2018-04-18T00:30:14.578Z,100060.23
2018-04-18T00:32:43.433Z,100061.23
2018-04-18T00:35:11.001Z,100061.70
2018-04-18T00:37:38.967Z,100068.07
2018-04-18T00:40:06.836Z,100069.20
2018-04-18T00:42:34.801Z,100068.36
2018-04-18T00:45:02.402Z,100082.11
2018-04-18T00:47:30.360Z,100082.39
2018-04-18T00:49:58.201Z,100078.17
2018-04-18T00:52:25.757Z,100074.08
2018-04-18T00:54:53.661Z,100083.21
2018-04-18T00:57:21.811Z,100083.22
2018-04-18T00:59:49.574Z,100075.95
2018-04-18T01:02:17.128Z,100081.25
2018-04-18T01:04:44.784Z,100081.19
2018-04-18T01:07:12.317Z,100084.66
2018-04-18T01:09:39.878Z,100085.02
2018-04-18T01:12:07.517Z,100082.28
2018-04-18T01:14:35.906Z,100084.37
2018-04-18T01:17:03.736Z,100088.63
2018-04-18T01:19:31.354Z,100085.24
2018-04-18T01:21:58.937Z,100088.22
2018-04-18T01:24:26.523Z,100084.53
2018-04-18T01:26:54.368Z,100094.64
2018-04-18T01:29:21.985Z,100084.22
2018-04-18T01:31:49.536Z,100094.13
2018-04-18T01:34:17.608Z,100089.52
2018-04-18T01:36:45.242Z,100097.08
2018-04-18T01:39:12.783Z,100096.00
2018-04-18T01:41:40.334Z,100093.34
2018-04-18T01:44:08.121Z,100095.78
2018-04-18T01:46:36.176Z,100104.53
2018-04-18T01:49:15.722Z,100100.27
2018-04-18T01:51:43.265Z,100093.98
2018-04-18T01:54:10.813Z,100094.50
2018-04-18T01:56:38.780Z,100094.78
2018-04-18T01:59:06.371Z,100092.16
2018-04-18T02:01:34.685Z,100085.98
2018-04-18T02:04:02.225Z,100096.45
2018-04-18T02:06:29.817Z,100106.66
2018-04-18T02:08:57.888Z,100098.88
2018-04-18T02:14:24.615Z,100092.63
2018-04-18T02:16:52.162Z,100094.42
2018-04-18T02:19:19.709Z,100092.58
2018-04-18T02:21:47.297Z,100093.52
2018-04-18T02:24:14.905Z,100094.65
2018-04-18T02:26:42.449Z,100100.75
2018-04-18T02:29:10.014Z,100098.03
2018-04-18T02:31:37.714Z,100106.53
2018-04-18T02:34:05.498Z,100103.90
2018-04-18T02:36:33.070Z,100109.74
2018-04-18T02:39:00.704Z,100110.38
2018-04-18T02:41:28.329Z,100109.98
2018-04-18T02:43:55.890Z,100108.19
2018-04-18T02:49:22.022Z,100120.96
2018-04-18T02:51:49.636Z,100119.41
2018-04-18T02:54:17.190Z,100122.66
2018-04-18T02:56:45.678Z,100125.31
2018-04-18T02:59:13.840Z,100131.78
2018-04-18T03:01:41.430Z,100130.05
2018-04-18T03:04:09.003Z,100130.82
2018-04-18T03:06:36.590Z,100132.77
2018-04-18T03:09:04.184Z,100136.75
2018-04-18T03:11:32.989Z,100134.61
2018-04-18T03:14:00.537Z,100139.34
2018-04-18T03:16:28.089Z,100142.18
2018-04-18T03:18:55.689Z,100141.23
2018-04-18T03:21:23.719Z,100145.78
2018-04-18T03:23:51.454Z,100149.45
2018-04-18T03:26:19.026Z,100155.36
2018-04-18T03:28:46.577Z,100161.06
2018-04-18T03:31:14.185Z,100151.67
2018-04-18T03:33:42.548Z,100152.05
2018-04-18T03:36:10.143Z,100150.92
2018-04-18T03:38:37.746Z,100143.44
2018-04-18T03:43:55.893Z,100154.92
2018-04-18T03:46:24.098Z,100167.16
2018-04-18T03:48:52.672Z,100168.85
2018-04-18T03:51:20.330Z,100162.41
2018-04-18T03:53:49.360Z,100167.56
2018-04-18T03:56:16.912Z,100174.91
2018-04-18T03:58:44.522Z,100180.13
2018-04-18T04:01:12.075Z,100181.84
2018-04-18T04:03:40.292Z,100180.20
2018-04-18T04:06:08.192Z,100183.53
2018-04-18T04:08:35.742Z,100190.27
2018-04-18T04:11:03.345Z,100188.61
2018-04-18T04:13:30.960Z,100191.46
2018-04-18T04:15:58.538Z,100193.98
2018-04-18T04:18:39.166Z,100198.87
2018-04-18T04:21:18.667Z,100199.17
2018-04-18T04:23:57.874Z,100203.44
2018-04-18T04:26:26.849Z,100204.69
2018-04-18T04:28:54.442Z,100211.23
2018-04-18T04:31:22.046Z,100209.19
2018-04-18T04:33:49.622Z,100215.47
2018-04-18T04:36:17.233Z,100221.33
2018-04-18T04:38:45.113Z,100220.33
2018-04-18T04:41:12.729Z,100224.46
2018-04-18T04:43:40.287Z,100225.36
2018-04-18T04:46:08.385Z,100220.23
2018-04-18T04:48:36.168Z,100207.89
2018-04-18T04:51:03.786Z,100216.26
2018-04-18T04:53:32.346Z,100215.25
2018-04-18T04:55:59.893Z,100224.94
2018-04-18T04:58:27.975Z,100226.55
2018-04-18T05:00:56.736Z,100230.58
2018-04-18T05:03:24.958Z,100228.08
2018-04-18T05:05:52.587Z,100232.52
2018-04-18T05:08:21.157Z,100235.59
2018-04-18T05:10:51.453Z,100238.72
2018-04-18T05:13:19.323Z,100240.72
2018-04-18T05:15:46.956Z,100239.88
2018-04-18T05:18:15.926Z,100240.25
2018-04-18T05:20:43.490Z,100232.06
2018-04-18T05:23:12.066Z,100236.97
2018-04-18T05:25:39.678Z,100236.30
2018-04-18T05:28:07.242Z,100243.45
2018-04-18T05:30:34.876Z,100249.31
2018-04-18T05:42:19.598Z,100253.37
2018-04-18T05:44:47.162Z,100249.58
2018-04-18T05:47:15.015Z,100253.42
2018-04-18T05:49:42.607Z,100259.16
2018-04-18T05:52:10.362Z,100252.69
2018-04-18T05:54:38.021Z,100250.16
2018-04-18T05:57:05.717Z,100241.70
2018-04-18T05:59:33.273Z,100254.09
2018-04-18T06:02:00.876Z,100253.65
2018-04-18T06:04:28.740Z,100247.97
2018-04-18T06:06:56.385Z,100249.10
2018-04-18T06:09:24.308Z,100250.94
2018-04-18T06:11:52.127Z,100252.80
2018-04-18T06:14:19.726Z,100259.41
2018-04-18T06:16:47.435Z,100253.42
2018-04-18T06:19:15.069Z,100265.02
2018-04-18T06:21:42.630Z,100265.78
2018-04-18T06:24:10.191Z,100269.05
2018-04-18T06:26:37.790Z,100274.89
2018-04-18T06:29:05.520Z,100272.06
2018-04-18T06:31:33.068Z,100277.65
2018-04-18T06:34:00.657Z,100272.05
2018-04-18T06:36:29.670Z,100273.47
2018-04-18T06:38:57.294Z,100282.72
2018-04-18T06:41:24.860Z,100280.47
2018-04-18T06:43:53.286Z,100280.39
2018-04-18T06:46:20.896Z,100284.83
2018-04-18T06:48:48.510Z,100280.86
2018-04-18T06:51:16.907Z,100284.42
2018-04-18T06:53:44.634Z,100280.20
2018-04-18T06:56:12.298Z,100281.38
2018-04-18T06:58:39.959Z,100283.19
2018-04-18T07:01:07.507Z,100283.91
2018-04-18T07:03:35.102Z,100288.89
2018-04-18T07:06:03.682Z,100286.50
2018-04-18T07:08:31.234Z,100287.85
2018-04-18T07:10:59.034Z,100286.45
2018-04-18T07:13:26.781Z,100287.45
2018-04-18T07:15:55.190Z,100284.05
2018-04-18T07:18:22.803Z,100290.02
2018-04-18T07:20:50.483Z,100281.55
2018-04-18T07:23:18.078Z,100282.48
2018-04-18T07:25:45.628Z,100285.44
2018-04-18T07:28:13.171Z,100284.20
2018-04-18T07:30:40.778Z,100282.18
2018-04-18T07:33:09.485Z,100286.52
2018-04-18T07:35:37.098Z,100281.75
2018-04-18T07:38:04.650Z,100281.59
2018-04-18T07:40:32.262Z,100287.50
2018-04-18T07:42:59.867Z,100287.81
2018-04-18T07:45:28.003Z,100286.92
2018-04-18T07:47:55.762Z,100288.95
2018-04-18T07:50:23.325Z,100285.39
2018-04-18T07:52:50.974Z,100288.13
2018-04-18T07:55:19.669Z,100287.02
2018-04-18T07:57:47.763Z,100285.91
2018-04-18T08:00:15.503Z,100284.63
2018-04-18T08:02:43.231Z,100288.64
2018-04-18T08:05:11.348Z,100285.59
2018-04-18T08:07:39.486Z,100282.27
2018-04-18T08:10:07.072Z,100290.60
2018-04-18T08:12:34.989Z,100294.23
2018-04-18T08:15:02.559Z,100292.52
2018-04-18T08:17:30.114Z,100296.73
2018-04-18T08:19:58.563Z,100292.50
2018-04-18T08:22:26.306Z,100295.73
2018-04-18T08:24:55.319Z,100296.14
2018-04-18T08:27:22.924Z,100297.54
2018-04-18T08:29:50.828Z,100296.85
2018-04-18T08:32:18.451Z,100299.88
2018-04-18T08:34:46.002Z,100294.18
2018-04-18T08:37:13.612Z,100299.70
2018-04-18T08:39:41.775Z,100299.29
2018-04-18T08:42:09.473Z,100301.75
2018-04-18T08:44:37.094Z,100299.30
2018-04-18T08:47:04.651Z,100302.31
2018-04-18T08:49:32.286Z,100301.41
2018-04-18T08:52:00.842Z,100296.03
2018-04-18T08:54:28.781Z,100294.26
2018-04-18T08:56:56.416Z,100290.20
2018-04-18T08:59:24.067Z,100289.13
2018-04-18T09:01:52.633Z,100284.65
2018-04-18T09:04:20.249Z,100285.88
2018-04-18T09:06:47.858Z,100286.59
2018-04-18T09:09:15.486Z,100288.79
2018-04-18T09:11:43.039Z,100281.20
2018-04-18T09:14:10.889Z,100285.50
2018-04-18T09:16:39.354Z,100281.78
2018-04-18T09:19:07.344Z,100282.29
2018-04-18T09:21:35.125Z,100280.23
2018-04-18T09:24:02.670Z,100282.17
2018-04-18T09:26:30.289Z,100284.15
2018-04-18T09:28:57.883Z,100279.24
2018-04-18T09:31:25.605Z,100280.94
2018-04-18T09:33:53.229Z,100279.16
2018-04-18T09:36:20.782Z,100271.16
2018-04-18T09:38:48.340Z,100271.30
2018-04-18T09:41:15.959Z,100271.25
2018-04-18T09:43:43.514Z,100263.73
2018-04-18T09:46:11.181Z,100265.78
2018-04-18T09:48:39.726Z,100256.66
2018-04-18T09:51:07.279Z,100253.08
2018-04-18T09:53:34.942Z,100260.65
2018-04-18T09:56:02.505Z,100255.41
2018-04-18T09:58:31.024Z,100254.98
2018-04-18T10:00:59.591Z,100259.22
2018-04-18T10:03:29.287Z,100252.55
2018-04-18T10:05:56.881Z,100253.52
2018-04-18T10:08:24.839Z,100248.13
2018-04-18T10:10:52.656Z,100253.31
2018-04-18T10:13:20.497Z,100247.34
2018-04-18T10:15:48.099Z,100246.86
2018-04-18T10:18:15.667Z,100241.33
2018-04-18T10:20:44.582Z,100246.20
2018-04-18T10:23:12.138Z,100245.95
2018-04-18T10:25:40.557Z,100241.31
2018-04-18T10:28:08.436Z,100241.31
2018-04-18T10:30:36.391Z,100237.80
2018-04-18T10:33:04.575Z,100237.32
2018-04-18T10:35:32.178Z,100240.33
2018-04-18T10:38:00.269Z,100234.06
2018-04-18T10:40:28.175Z,100230.24
2018-04-18T10:42:55.762Z,100239.14
2018-04-18T10:45:24.118Z,100229.12
2018-04-18T10:47:52.088Z,100232.69
2018-04-18T10:50:20.623Z,100234.17
2018-04-18T10:52:48.281Z,100233.38
2018-04-18T10:55:15.925Z,100224.57
2018-04-18T10:57:43.537Z,100232.98
2018-04-18T11:00:11.083Z,100227.30
2018-04-18T11:02:38.685Z,100229.20
2018-04-18T11:05:07.060Z,100229.68
2018-04-18T11:07:34.618Z,100229.31
2018-04-18T11:10:02.299Z,100237.19
2018-04-18T11:12:29.868Z,100227.44
2018-04-18T11:14:57.442Z,100227.98
2018-04-18T11:17:25.102Z,100227.08
2018-04-18T11:19:52.658Z,100222.59
2018-04-18T11:22:20.274Z,100222.39
2018-04-18T11:24:48.707Z,100221.48
2018-04-18T11:27:16.381Z,100219.66
2018-04-18T11:29:44.009Z,100222.75
2018-04-18T11:32:12.367Z,100216.00
2018-04-18T11:34:39.918Z,100217.28
2018-04-18T11:37:07.515Z,100211.80
2018-04-18T11:39:35.134Z,100209.83
2018-04-18T11:42:02.693Z,100210.68
2018-04-18T11:44:30.346Z,100205.17
2018-04-18T11:46:57.954Z,100205.17
2018-04-18T11:49:25.530Z,100200.91
2018-04-18T11:51:53.236Z,100207.14
2018-04-18T11:54:20.794Z,100203.36
2018-04-18T11:56:49.310Z,100198.39
2018-04-18T11:59:17.913Z,100202.87
2018-04-18T12:01:45.562Z,100200.14
2018-04-18T12:04:13.155Z,100200.53
2018-04-18T12:06:40.708Z,100201.39
2018-04-18T12:09:08.370Z,100209.75
2018-04-18T12:11:36.015Z,100201.20
2018-04-18T12:14:03.683Z,100195.51
2018-04-18T12:16:31.446Z,100194.72
2018-04-18T12:18:59.082Z,100194.75
2018-04-18T12:21:26.629Z,100197.11
2018-04-18T12:23:54.983Z,100194.23
2018-04-18T12:26:22.582Z,100188.58
2018-04-18T12:28:50.186Z,100194.33
2018-04-18T12:31:17.791Z,100193.48
2018-04-18T12:33:45.370Z,100187.09
2018-04-18T12:36:12.922Z,100191.00
2018-04-18T12:38:40.514Z,100189.27
2018-04-18T12:41:08.133Z,100186.61
2018-04-18T12:43:35.763Z,100183.52
2018-04-18T12:46:03.406Z,100178.25
2018-04-18T12:48:30.954Z,100179.22
2018-04-18T12:50:58.562Z,100176.55
2018-04-18T12:53:26.336Z,100178.34
2018-04-18T12:55:53.995Z,100173.49
2018-04-18T12:58:21.567Z,100170.41
2018-04-18T13:00:49.205Z,100162.84
2018-04-18T13:03:16.815Z,100170.73
2018-04-18T13:05:44.384Z,100163.17
2018-04-18T13:08:12.084Z,100163.11
2018-04-18T13:10:39.746Z,100164.38
2018-04-18T13:13:07.282Z,100166.62
2018-04-18T13:15:34.951Z,100163.89
2018-04-18T13:18:02.626Z,100160.80
2018-04-18T13:20:30.198Z,100158.56
2018-04-18T13:22:57.834Z,100156.51
2018-04-18T13:25:25.435Z,100162.14
2018-04-18T13:27:53.930Z,100155.53
2018-04-18T13:30:21.543Z,100151.88
2018-04-18T13:32:49.087Z,100154.11
2018-04-18T13:35:17.619Z,100147.88
2018-04-18T13:37:45.231Z,100149.72
2018-04-18T13:40:12.812Z,100147.66
2018-04-18T13:42:40.480Z,100143.27
2018-04-18T13:45:08.040Z,100148.23
2018-04-18T13:47:35.669Z,100152.17
2018-04-18T13:50:03.271Z,100145.09
2018-04-18T13:52:30.873Z,100149.63
2018-04-18T13:54:58.496Z,100146.55
2018-04-18T13:57:26.089Z,100155.97
2018-04-18T13:59:53.642Z,100148.81
2018-04-18T14:02:21.190Z,100146.64
2018-04-18T14:04:48.834Z,100149.39
2018-04-18T14:07:17.287Z,100144.97
2018-04-18T14:09:44.929Z,100148.13
2018-04-18T14:12:12.535Z,100144.03
2018-04-18T14:14:40.118Z,100144.58
2018-04-18T14:17:07.666Z,100140.64
2018-04-18T14:19:35.285Z,100139.50
2018-04-18T14:22:02.830Z,100143.52
2018-04-18T14:24:30.378Z,100139.64
2018-04-18T14:26:58.034Z,100137.50
2018-04-18T14:29:25.994Z,100144.70
2018-04-18T14:31:53.621Z,100141.98
2018-04-18T14:34:21.254Z,100136.71
2018-04-18T14:36:48.862Z,100135.08
2018-04-18T14:39:16.471Z,100131.44
2018-04-18T14:41:44.121Z,100134.47
2018-04-18T14:44:12.302Z,100138.04
2018-04-18T14:46:39.926Z,100138.59
2018-04-18T14:49:07.537Z,100139.07
2018-04-18T14:51:35.251Z,100138.62
2018-04-18T14:54:03.601Z,100142.73
2018-04-18T14:56:31.303Z,100138.25
2018-04-18T14:58:59.196Z,100136.92
2018-04-18T15:01:27.215Z,100135.59
2018-04-18T15:03:54.878Z,100133.41
2018-04-18T15:06:23.011Z,100139.16
2018-04-18T15:08:51.563Z,100135.16
2018-04-18T15:11:19.215Z,100133.20
2018-04-18T15:13:46.762Z,100132.77
2018-04-18T15:16:14.373Z,100132.84
2018-04-18T15:18:41.978Z,100129.36
2018-04-18T15:21:09.586Z,100128.87
2018-04-18T15:23:37.242Z,100135.59
2018-04-18T15:26:04.926Z,100135.16
2018-04-18T15:28:32.518Z,100134.38
2018-04-18T15:31:00.130Z,100130.81
2018-04-18T15:33:27.814Z,100132.20
2018-04-18T15:35:55.446Z,100129.56
2018-04-18T15:38:23.002Z,100134.11
2018-04-18T15:40:50.792Z,100129.69
2018-04-18T15:43:18.338Z,100135.11
2018-04-18T15:45:48.766Z,100127.23
2018-04-18T15:48:16.386Z,100127.30
2018-04-18T15:50:44.814Z,100136.28
2018-04-18T15:53:14.219Z,100136.83
2018-04-18T15:55:42.649Z,100135.92
2018-04-18T15:58:10.311Z,100134.80
2018-04-18T16:00:37.855Z,100135.86
2018-04-18T16:03:06.565Z,100138.64
2018-04-18T16:05:34.129Z,100137.52
2018-04-18T16:08:02.682Z,100131.80
2018-04-18T16:10:32.015Z,100138.15
2018-04-18T16:12:59.581Z,100132.48
2018-04-18T16:15:27.135Z,100134.00
2018-04-18T16:17:54.730Z,100138.14
2018-04-18T16:20:22.373Z,100140.02
2018-04-18T16:22:49.995Z,100135.27
2018-04-18T16:25:17.618Z,100138.89
2018-04-18T16:27:45.263Z,100133.66
2018-04-18T16:30:24.534Z,100134.71
2018-04-18T16:32:52.214Z,100137.61
2018-04-18T16:35:19.769Z,100140.05
2018-04-18T16:37:47.378Z,100135.87
2018-04-18T16:40:16.749Z,100143.64
2018-04-18T16:42:44.310Z,100140.19
2018-04-18T16:45:11.870Z,100139.42
2018-04-18T16:47:39.603Z,100148.44
2018-04-18T16:50:07.154Z,100145.46
2018-04-18T16:52:34.754Z,100154.41
2018-04-18T16:55:02.359Z,100154.67
2018-04-18T16:57:30.054Z,100158.86
2018-04-18T16:59:58.834Z,100160.34
2018-04-18T17:02:26.440Z,100159.15
2018-04-18T17:04:54.098Z,100157.54
2018-04-18T17:07:22.782Z,100166.20
2018-04-18T17:09:52.157Z,100163.80
2018-04-18T17:12:19.742Z,100174.61
2018-04-18T17:14:47.891Z,100177.05
2018-04-18T17:17:15.539Z,100182.94
2018-04-18T17:19:43.122Z,100182.52
2018-04-18T17:22:12.600Z,100183.70
2018-04-18T17:24:40.189Z,100197.48
2018-04-18T17:27:07.851Z,100200.33
2018-04-18T17:29:35.426Z,100197.98
2018-04-18T17:32:03.460Z,100207.00
2018-04-18T17:34:31.938Z,100223.69
2018-04-18T17:36:59.590Z,100221.81
2018-04-18T17:39:27.202Z,100226.17
2018-04-18T17:41:55.158Z,100234.44
2018-04-18T17:44:23.477Z,100240.55
2018-04-18T17:46:51.142Z,100243.91
2018-04-18T17:49:18.710Z,100253.09
2018-04-18T17:51:46.380Z,100263.17
2018-04-18T17:54:14.983Z,100265.77
2018-04-18T17:56:43.702Z,100271.80
2018-04-18T17:59:11.355Z,100281.53
2018-04-18T18:01:39.254Z,100288.13
2018-04-18T18:04:07.713Z,100298.34
2018-04-18T18:06:35.286Z,100301.79
2018-04-18T18:09:03.938Z,100306.69
2018-04-18T18:11:32.104Z,100314.23
2018-04-18T18:14:00.472Z,100319.55
2018-04-18T18:16:28.087Z,100320.88
2018-04-18T18:18:56.703Z,100324.80
2018-04-18T18:21:25.294Z,100334.53
2018-04-18T18:23:53.218Z,100339.42
2018-04-18T18:26:20.875Z,100344.27
2018-04-18T18:28:49.522Z,100347.83
2018-04-18T18:31:18.106Z,100353.64
2018-04-18T18:33:45.715Z,100354.05
2018-04-18T18:36:13.346Z,100360.22
2018-04-18T18:38:41.074Z,100363.43
2018-04-18T18:41:08.658Z,100366.22
2018-04-18T18:43:37.237Z,100371.11
2018-04-18T18:46:05.210Z,100360.95
2018-04-18T18:48:33.757Z,100366.22
2018-04-18T18:51:01.419Z,100366.28
2018-04-18T18:53:29.050Z,100375.16
2018-04-18T18:55:56.594Z,100373.41
2018-04-18T18:58:24.222Z,100372.61
2018-04-18T19:00:51.777Z,100373.52
2018-04-18T19:03:19.381Z,100373.53
2018-04-18T19:05:46.993Z,100373.59
2018-04-18T19:08:15.048Z,100379.92
2018-04-18T19:10:42.589Z,100380.79
2018-04-18T19:13:10.138Z,100378.72
2018-04-18T19:15:38.587Z,100380.23
2018-04-18T19:18:06.672Z,100385.17
2018-04-18T19:20:36.175Z,100389.61
2018-04-18T19:23:04.192Z,100384.83
2018-04-18T19:25:33.125Z,100390.70
2018-04-18T19:28:01.895Z,100392.51
2018-04-18T19:30:29.953Z,100391.28
2018-04-18T19:32:58.710Z,100395.34
2018-04-18T19:35:28.002Z,100395.51
2018-04-18T19:37:56.567Z,100395.53
2018-04-18T19:40:24.466Z,100396.03
2018-04-18T19:42:52.043Z,100399.16
2018-04-18T19:45:19.649Z,100399.64
2018-04-18T19:47:47.531Z,100402.38
2018-04-18T19:50:15.789Z,100403.38
2018-04-18T19:52:43.338Z,100407.38
2018-04-18T19:55:10.930Z,100404.33
2018-04-18T19:57:39.482Z,100404.98
2018-04-18T20:00:07.267Z,100404.61
2018-04-18T20:02:34.819Z,100395.69
2018-04-18T20:05:03.027Z,100400.38
2018-04-18T20:07:32.359Z,100405.48
2018-04-18T20:09:59.914Z,100403.18
2018-04-18T20:12:27.462Z,100402.83
2018-04-18T20:14:55.318Z,100403.41
2018-04-18T20:17:23.997Z,100404.31
2018-04-18T20:19:52.670Z,100407.47
2018-04-18T20:22:20.383Z,100399.97
2018-04-18T20:24:48.535Z,100404.06
2018-04-18T20:27:16.639Z,100408.00
2018-04-18T20:29:45.289Z,100405.39
2018-04-18T20:32:13.698Z,100404.02
2018-04-18T20:34:42.678Z,100401.83
2018-04-18T20:37:11.234Z,100402.20
2018-04-18T20:39:38.778Z,100404.86
2018-04-18T20:42:06.322Z,100404.81
2018-04-18T20:44:34.116Z,100409.80
2018-04-18T20:47:01.659Z,100402.34
2018-04-18T20:49:31.237Z,100404.55
2018-04-18T20:51:58.925Z,100407.88
2018-04-18T20:54:27.639Z,100412.00
2018-04-18T20:56:57.198Z,100416.43
2018-04-18T20:59:25.589Z,100420.25
2018-04-18T21:01:53.918Z,100421.58
2018-04-18T21:04:21.458Z,100420.95
2018-04-18T21:06:49.791Z,100416.99
2018-04-18T21:09:17.335Z,100414.73
2018-04-18T21:11:45.506Z,100416.06
2018-04-18T21:14:13.126Z,100414.32
2018-04-18T21:16:40.716Z,100414.64
2018-04-18T21:19:08.273Z,100411.62
2018-04-18T21:21:36.880Z,100413.22
2018-04-18T21:24:05.067Z,100413.58
2018-04-18T21:26:32.936Z,100416.80
2018-04-18T21:29:02.431Z,100415.83
2018-04-18T21:31:29.982Z,100414.35
2018-04-18T21:33:57.544Z,100413.25
2018-04-18T21:36:25.139Z,100415.20
2018-04-18T21:38:52.691Z,100420.82
2018-04-18T21:41:20.322Z,100420.67
2018-04-18T21:43:47.878Z,100424.75
2018-04-18T21:46:15.421Z,100421.96
2018-04-18T21:48:43.017Z,100424.50
2018-04-18T21:51:11.501Z,100416.94
2018-04-18T21:53:39.094Z,100422.23
2018-04-18T21:56:06.647Z,100417.36
2018-04-18T21:58:34.531Z,100417.00
2018-04-18T22:01:02.076Z,100419.08
2018-04-18T22:03:29.670Z,100408.23
2018-04-18T22:05:57.219Z,100409.79
2018-04-18T22:08:24.807Z,100420.70
2018-04-18T22:10:52.389Z,100419.02
2018-04-18T22:13:19.931Z,100419.31
2018-04-18T22:15:47.807Z,100423.89
2018-04-18T22:18:15.570Z,100430.02
2018-04-18T22:20:43.327Z,100429.34
2018-04-18T22:23:10.914Z,100431.00
2018-04-18T22:25:39.171Z,100439.19
2018-04-18T22:28:06.770Z,100441.93
2018-04-18T22:30:34.852Z,100452.41
2018-04-18T22:33:03.784Z,100449.82
2018-04-18T22:35:31.477Z,100441.70
2018-04-18T22:37:59.226Z,100445.39
2018-04-18T22:40:26.767Z,100434.08
2018-04-18T22:42:54.378Z,100433.27
2018-04-18T22:45:21.922Z,100440.37
2018-04-18T22:47:50.422Z,100442.04
2018-04-18T22:50:18.064Z,100440.39
2018-04-18T22:52:45.610Z,100434.00
2018-04-18T22:55:13.445Z,100437.29
2018-04-18T22:57:41.049Z,100432.92
2018-04-18T23:00:08.694Z,100439.69
2018-04-18T23:02:36.291Z,100444.56
2018-04-18T23:05:04.114Z,100440.78
2018-04-18T23:07:31.665Z,100452.62
2018-04-18T23:10:00.651Z,100447.89
2018-04-18T23:12:28.195Z,100449.76
2018-04-18T23:14:55.801Z,100451.28
2018-04-18T23:17:23.353Z,100448.95
2018-04-18T23:19:51.091Z,100452.73
2018-04-18T23:22:30.420Z,100450.11
2018-04-18T23:24:58.006Z,100442.58
2018-04-18T23:27:25.561Z,100443.58
2018-04-18T23:29:53.150Z,100437.95
2018-04-18T23:32:20.697Z,100435.95
2018-04-18T23:34:49.665Z,100428.46
2018-04-18T23:37:17.261Z,100429.89
2018-04-18T23:39:45.210Z,100432.45
2018-04-18T23:42:13.387Z,100431.98
2018-04-18T23:44:41.282Z,100436.91
2018-04-18T23:47:09.698Z,100433.75
2018-04-18T23:49:37.318Z,100426.17
2018-04-18T23:52:05.067Z,100421.78
2018-04-18T23:54:32.616Z,100421.60
2018-04-18T23:57:00.867Z,100418.98
2018-04-18T23:59:28.657Z,100415.94
